Time;durP1;ratioP1;P1;durP2;ratioP2;P2;SDS_P1;SDS_P2;PMS_P1;PMS_P2;Temp;Humidity;BMP_temperature;BMP_pressure;BME280_temperature;BME280_humidity;BME280_pressure;Samples;Min_cycle;Max_cycle;Signal;HPM_P1;HPM_P2
2022/08/29 00:02:11;;;;;;;7.75;3.00;;;;;;;;;;4998544;28;20057;-70
2022/08/29 00:04:37;;;;;;;7.53;2.63;;;;;;;;;;5002885;28;20077;-70
2022/08/29 00:07:03;;;;;;;9.80;3.05;;;;;;;;;;5003087;28;20566;-70
2022/08/29 00:09:29;;;;;;;7.40;2.72;;;;;;;;;;5002775;28;20058;-72
2022/08/29 00:11:55;;;;;;;9.15;3.47;;;;;;;;;;5005610;28;20060;-70
2022/08/29 00:14:21;;;;;;;10.20;3.03;;;;;;;;;;5005040;28;20058;-68
2022/08/29 00:16:47;;;;;;;6.97;2.90;;;;;;;;;;5002615;28;20058;-69
2022/08/29 00:19:12;;;;;;;4.75;2.75;;;;;;;;;;5002944;28;20049;-69
2022/08/29 00:21:39;;;;;;;7.32;2.92;;;;;;;;;;5002172;28;20485;-69
2022/08/29 00:24:05;;;;;;;6.97;2.90;;;;;;;;;;5001985;28;20054;-71
2022/08/29 00:26:30;;;;;;;8.27;3.40;;;;;;;;;;5004460;28;20112;-70
2022/08/29 00:28:56;;;;;;;4.82;2.95;;;;;;;;;;5003754;28;20199;-69
2022/08/29 00:31:22;;;;;;;4.72;2.70;;;;;;;;;;4999167;28;20066;-70
2022/08/29 00:33:50;;;;;;;5.38;2.80;;;;;;;;;;5003545;28;20423;-68
2022/08/29 00:36:16;;;;;;;25.65;3.33;;;;;;;;;;5003119;28;20053;-69
2022/08/29 00:38:42;;;;;;;6.20;2.78;;;;;;;;;;5003013;28;20053;-69
2022/08/29 00:41:08;;;;;;;6.57;2.78;;;;;;;;;;4999912;28;20601;-70
2022/08/29 00:43:36;;;;;;;6.65;2.58;;;;;;;;;;4986779;28;20074;-73
2022/08/29 00:46:27;;;;;;;8.38;3.10;;;;;;;;;;5003479;28;20054;-68
2022/08/29 00:48:56;;;;;;;8.18;3.10;;;;;;;;;;5004028;28;20066;-71
2022/08/29 00:51:23;;;;;;;5.88;2.88;;;;;;;;;;5003218;28;20258;-70
2022/08/29 00:53:58;;;;;;;6.57;2.65;;;;;;;;;;5002132;28;20054;-71
2022/08/29 00:56:25;;;;;;;8.85;2.80;;;;;;;;;;4985200;28;20622;-69
2022/08/29 00:58:56;;;;;;;6.32;2.83;;;;;;;;;;5002114;28;20050;-69
2022/08/29 01:01:22;;;;;;;9.55;2.72;;;;;;;;;;5000350;28;20132;-71
2022/08/29 01:03:50;;;;;;;5.40;3.00;;;;;;;;;;5002057;28;20058;-70
2022/08/29 01:06:16;;;;;;;9.70;3.00;;;;;;;;;;5005885;28;20404;-70
2022/08/29 01:08:43;;;;;;;9.63;3.00;;;;;;;;;;5001967;28;20830;-70
2022/08/29 01:13:59;;;;;;;8.57;3.05;;;;;;;;;;5004159;28;20052;-70
2022/08/29 01:16:26;;;;;;;8.00;2.92;;;;;;;;;;5002795;28;20088;-73
2022/08/29 01:19:00;;;;;;;6.18;3.30;;;;;;;;;;5002847;28;20050;-69
2022/08/29 01:21:37;;;;;;;;;;;;;;;;;;5002017;28;20144;-66
2022/08/29 01:24:10;;;;;;;5.43;2.90;;;;;;;;;;5002013;28;19930;-68
2022/08/29 01:26:36;;;;;;;6.57;3.05;;;;;;;;;;5005333;28;20057;-69
2022/08/29 01:29:02;;;;;;;6.53;2.78;;;;;;;;;;5006668;28;20046;-70
2022/08/29 01:31:37;;;;;;;4.57;2.60;;;;;;;;;;5005004;28;20123;-68
2022/08/29 01:34:04;;;;;;;6.15;3.03;;;;;;;;;;4988962;28;20045;-69
2022/08/29 01:36:58;;;;;;;5.50;2.92;;;;;;;;;;5008909;28;20076;-69
2022/08/29 01:39:30;;;;;;;6.25;3.03;;;;;;;;;;5000842;28;20273;-70
2022/08/29 01:41:58;;;;;;;6.57;4.38;;;;;;;;;;5005807;28;20061;-68
2022/08/29 01:44:25;;;;;;;7.97;5.65;;;;;;;;;;5006724;28;20950;-69
2022/08/29 01:46:53;;;;;;;12.20;5.90;;;;;;;;;;5006549;28;20052;-71
2022/08/29 01:49:20;;;;;;;11.10;5.70;;;;;;;;;;5001911;28;20050;-69
2022/08/29 01:51:46;;;;;;;9.48;6.15;;;;;;;;;;5003606;28;20042;-69
2022/08/29 01:54:13;;;;;;;10.50;5.75;;;;;;;;;;4983538;28;20046;-71
2022/08/29 01:56:45;;;;;;;10.27;5.78;;;;;;;;;;5005139;28;20109;-70
2022/08/29 01:59:14;;;;;;;9.90;5.03;;;;;;;;;;5004756;28;20096;-68
2022/08/29 02:01:48;;;;;;;7.85;4.32;;;;;;;;;;5005421;28;20141;-69
2022/08/29 02:04:15;;;;;;;9.30;4.00;;;;;;;;;;5007352;28;20053;-68
2022/08/29 02:06:41;;;;;;;5.50;3.65;;;;;;;;;;5005260;28;20046;-69
2022/08/29 02:09:07;;;;;;;6.82;3.45;;;;;;;;;;5004505;28;20092;-68
2022/08/29 02:11:35;;;;;;;9.23;3.13;;;;;;;;;;5002308;28;20107;-69
2022/08/29 02:14:03;;;;;;;5.35;2.92;;;;;;;;;;5003898;28;20420;-71
2022/08/29 02:16:30;;;;;;;3.80;3.10;;;;;;;;;;5003268;28;20505;-72
2022/08/29 02:18:56;;;;;;;6.47;3.00;;;;;;;;;;5005128;28;20049;-68
2022/08/29 02:21:25;;;;;;;7.00;3.10;;;;;;;;;;5004028;28;20473;-69
2022/08/29 02:23:55;;;;;;;7.60;2.80;;;;;;;;;;5003314;28;20143;-70
2022/08/29 02:26:21;;;;;;;6.75;2.95;;;;;;;;;;5004061;28;20165;-72
2022/08/29 02:28:50;;;;;;;8.07;3.05;;;;;;;;;;5003806;28;20061;-69
2022/08/29 02:31:16;;;;;;;5.97;3.20;;;;;;;;;;5003231;28;20054;-69
2022/08/29 02:33:42;;;;;;;9.80;3.38;;;;;;;;;;5005185;28;20140;-70
2022/08/29 02:36:09;;;;;;;5.72;2.70;;;;;;;;;;5005165;28;20042;-72
2022/08/29 02:38:34;;;;;;;7.22;2.70;;;;;;;;;;5005762;28;20103;-68
2022/08/29 02:41:01;;;;;;;7.47;2.50;;;;;;;;;;5000275;28;20550;-70
2022/08/29 02:43:27;;;;;;;5.70;3.13;;;;;;;;;;5003306;28;20084;-71
2022/08/29 02:45:53;;;;;;;10.30;4.90;;;;;;;;;;5005549;28;20077;-69
2022/08/29 02:48:20;;;;;;;11.05;5.30;;;;;;;;;;5007163;28;20138;-68
2022/08/29 02:50:50;;;;;;;9.32;5.53;;;;;;;;;;5005529;28;20072;-69
2022/08/29 02:53:18;;;;;;;12.82;7.22;;;;;;;;;;5006621;28;20077;-69
2022/08/29 02:55:46;;;;;;;16.48;8.85;;;;;;;;;;5006160;28;20349;-70
2022/08/29 02:58:13;;;;;;;17.23;10.50;;;;;;;;;;5007172;28;20056;-69
2022/08/29 03:00:40;;;;;;;19.65;10.63;;;;;;;;;;5004401;28;20053;-70
2022/08/29 03:03:06;;;;;;;25.35;11.30;;;;;;;;;;5004512;28;20413;-69
2022/08/29 03:05:36;;;;;;;24.58;12.60;;;;;;;;;;5005941;28;20105;-72
2022/08/29 03:08:05;;;;;;;22.75;12.45;;;;;;;;;;5007569;28;20129;-69
2022/08/29 03:10:32;;;;;;;22.98;11.80;;;;;;;;;;5006113;28;20077;-68
2022/08/29 03:12:58;;;;;;;20.20;11.15;;;;;;;;;;5007697;28;20054;-67
2022/08/29 03:15:24;;;;;;;19.25;10.35;;;;;;;;;;5004644;28;20535;-68
2022/08/29 03:17:50;;;;;;;14.35;8.13;;;;;;;;;;5007396;28;20050;-69
2022/08/29 03:20:19;;;;;;;16.90;7.60;;;;;;;;;;4986619;28;20056;-69
2022/08/29 03:22:45;;;;;;;14.35;6.68;;;;;;;;;;5006486;28;20042;-70
2022/08/29 03:25:12;;;;;;;10.13;5.68;;;;;;;;;;4987964;28;20590;-69
2022/08/29 03:27:39;;;;;;;10.60;5.80;;;;;;;;;;5007211;28;20042;-68
2022/08/29 03:30:10;;;;;;;13.30;5.25;;;;;;;;;;5003755;28;20415;-68
2022/08/29 03:32:37;;;;;;;8.32;4.68;;;;;;;;;;5005398;28;20054;-68
2022/08/29 03:35:03;;;;;;;10.65;4.65;;;;;;;;;;5008905;28;20099;-69
2022/08/29 03:37:30;;;;;;;10.60;4.50;;;;;;;;;;5008563;28;20164;-69
2022/08/29 03:39:55;;;;;;;8.45;4.20;;;;;;;;;;5003457;28;20668;-72
2022/08/29 03:42:21;;;;;;;7.03;4.10;;;;;;;;;;5005817;28;20141;-68
2022/08/29 03:44:47;;;;;;;6.82;3.60;;;;;;;;;;5000357;28;20046;-69
2022/08/29 03:47:13;;;;;;;9.27;3.95;;;;;;;;;;5005868;28;20057;-70
2022/08/29 03:49:39;;;;;;;8.73;3.90;;;;;;;;;;5000303;28;20149;-68
2022/08/29 03:52:06;;;;;;;8.23;3.15;;;;;;;;;;5003949;28;20053;-69
2022/08/29 03:54:32;;;;;;;9.52;3.17;;;;;;;;;;5005651;28;20526;-69
2022/08/29 03:56:58;;;;;;;9.65;3.50;;;;;;;;;;5003329;28;20050;-70
2022/08/29 03:59:24;;;;;;;6.43;3.15;;;;;;;;;;5002724;28;20577;-70
2022/08/29 04:01:50;;;;;;;5.35;3.20;;;;;;;;;;5003880;28;20050;-70
2022/08/29 04:07:03;;;;;;;5.75;3.05;;;;;;;;;;5000818;28;20061;-70
2022/08/29 04:09:29;;;;;;;8.05;2.92;;;;;;;;;;4983616;28;20066;-70
2022/08/29 04:11:55;;;;;;;4.90;2.67;;;;;;;;;;5003971;28;20065;-70
2022/08/29 04:14:21;;;;;;;9.35;2.85;;;;;;;;;;5003145;28;20113;-71
2022/08/29 04:16:48;;;;;;;9.18;3.47;;;;;;;;;;5000743;28;20054;-71
2022/08/29 04:19:15;;;;;;;12.25;4.15;;;;;;;;;;5003491;28;20061;-70
2022/08/29 04:21:41;;;;;;;7.22;3.97;;;;;;;;;;5003347;28;20046;-70
2022/08/29 04:24:07;;;;;;;11.07;4.13;;;;;;;;;;4987471;28;20049;-70
2022/08/29 04:26:33;;;;;;;9.95;4.68;;;;;;;;;;5004728;28;20057;-71
2022/08/29 04:29:00;;;;;;;12.75;5.22;;;;;;;;;;5003325;28;20076;-69
2022/08/29 04:31:26;;;;;;;11.32;4.72;;;;;;;;;;5001049;28;20053;-70
2022/08/29 04:33:52;;;;;;;9.50;3.85;;;;;;;;;;5003934;28;20054;-69
2022/08/29 04:36:18;;;;;;;6.72;3.70;;;;;;;;;;4983933;28;20045;-71
2022/08/29 04:38:44;;;;;;;8.85;3.20;;;;;;;;;;5002606;28;20042;-71
2022/08/29 04:41:14;;;;;;;3.75;2.58;;;;;;;;;;4984282;28;20060;-69
2022/08/29 04:43:41;;;;;;;6.00;2.80;;;;;;;;;;5000565;28;20488;-72
2022/08/29 04:46:07;;;;;;;4.30;2.40;;;;;;;;;;5003067;28;20045;-71
2022/08/29 04:48:33;;;;;;;11.02;2.90;;;;;;;;;;5001736;28;20049;-74
2022/08/29 04:51:00;;;;;;;6.03;2.40;;;;;;;;;;5001945;28;20623;-71
2022/08/29 04:53:27;;;;;;;4.18;2.60;;;;;;;;;;4999027;28;20294;-70
2022/08/29 04:55:58;;;;;;;5.30;2.22;;;;;;;;;;5000044;28;20042;-69
2022/08/29 04:58:24;;;;;;;4.45;2.17;;;;;;;;;;5002712;28;20054;-69
2022/08/29 05:00:51;;;;;;;7.25;2.25;;;;;;;;;;5005954;28;20519;-71
2022/08/29 05:03:18;;;;;;;5.18;2.25;;;;;;;;;;5005734;28;20057;-73
2022/08/29 05:05:44;;;;;;;6.47;2.38;;;;;;;;;;4987903;28;20228;-70
2022/08/29 05:08:10;;;;;;;5.55;2.50;;;;;;;;;;5008712;28;20073;-69
2022/08/29 05:10:37;;;;;;;4.90;2.50;;;;;;;;;;5003940;28;20037;-70
2022/08/29 05:13:03;;;;;;;4.75;2.15;;;;;;;;;;5006008;28;20049;-70
2022/08/29 05:15:30;;;;;;;6.10;2.58;;;;;;;;;;5008132;28;20114;-70
2022/08/29 05:17:56;;;;;;;5.90;2.40;;;;;;;;;;5006966;28;20050;-69
2022/08/29 05:20:21;;;;;;;11.10;2.40;;;;;;;;;;5007758;28;20056;-70
2022/08/29 05:22:47;;;;;;;8.25;2.22;;;;;;;;;;5010450;28;20115;-70
2022/08/29 05:25:13;;;;;;;5.72;2.50;;;;;;;;;;5007980;28;20056;-71
2022/08/29 05:27:40;;;;;;;6.93;2.95;;;;;;;;;;5007783;28;20567;-70
2022/08/29 05:30:06;;;;;;;7.53;2.72;;;;;;;;;;4984685;28;20053;-75
2022/08/29 05:32:32;;;;;;;4.35;2.60;;;;;;;;;;5008269;28;20116;-74
2022/08/29 05:34:58;;;;;;;5.55;2.90;;;;;;;;;;5003154;28;20443;-64
2022/08/29 05:37:25;;;;;;;7.90;2.78;;;;;;;;;;5008145;28;20466;-64
2022/08/29 05:39:51;;;;;;;5.95;2.58;;;;;;;;;;5004529;28;20050;-63
2022/08/29 05:42:19;;;;;;;9.80;2.92;;;;;;;;;;5006975;28;20057;-64
2022/08/29 05:44:46;;;;;;;4.93;3.00;;;;;;;;;;5005437;28;20049;-63
2022/08/29 05:47:13;;;;;;;10.85;3.22;;;;;;;;;;5004948;28;20090;-63
2022/08/29 05:49:42;;;;;;;9.80;3.53;;;;;;;;;;5004247;28;20049;-63
2022/08/29 05:52:09;;;;;;;4.22;2.92;;;;;;;;;;4987176;28;20093;-63
2022/08/29 05:54:37;;;;;;;9.23;3.03;;;;;;;;;;5001198;28;20078;-63
2022/08/29 05:57:05;;;;;;;8.10;3.40;;;;;;;;;;5006364;28;20052;-64
2022/08/29 05:59:31;;;;;;;9.27;3.30;;;;;;;;;;5000308;28;20091;-65
2022/08/29 06:01:57;;;;;;;10.48;2.88;;;;;;;;;;5003868;28;20132;-62
2022/08/29 06:04:23;;;;;;;11.25;2.70;;;;;;;;;;5005083;28;20200;-68
2022/08/29 06:06:52;;;;;;;6.68;3.20;;;;;;;;;;5005347;28;20495;-66
2022/08/29 06:09:17;;;;;;;9.23;3.28;;;;;;;;;;5003319;28;20050;-63
2022/08/29 06:11:49;;;;;;;6.82;3.40;;;;;;;;;;4998168;28;20053;-64
2022/08/29 06:14:16;;;;;;;6.57;3.35;;;;;;;;;;5006026;28;20049;-63
2022/08/29 06:16:42;;;;;;;7.95;3.60;;;;;;;;;;5005632;28;20046;-66
2022/08/29 06:19:08;;;;;;;8.45;3.90;;;;;;;;;;5004104;28;20061;-65
2022/08/29 06:21:34;;;;;;;7.95;3.95;;;;;;;;;;5002093;28;20391;-62
2022/08/29 06:24:00;;;;;;;8.50;4.00;;;;;;;;;;5004516;28;20615;-63
2022/08/29 06:26:26;;;;;;;12.73;4.07;;;;;;;;;;5003260;28;20060;-65
2022/08/29 06:28:52;;;;;;;9.50;4.03;;;;;;;;;;5002244;28;20050;-64
2022/08/29 06:31:27;;;;;;;10.90;4.15;;;;;;;;;;4998911;28;20054;-63
2022/08/29 06:33:57;;;;;;;12.07;4.18;;;;;;;;;;5004962;28;20049;-63
2022/08/29 06:36:26;;;;;;;14.57;4.20;;;;;;;;;;5005404;28;20423;-64
2022/08/29 06:38:55;;;;;;;16.45;4.40;;;;;;;;;;5003658;28;20053;-63
2022/08/29 06:41:23;;;;;;;14.30;4.18;;;;;;;;;;4998659;28;20060;-63
2022/08/29 06:43:49;;;;;;;11.38;4.10;;;;;;;;;;5004084;28;20119;-65
2022/08/29 06:46:32;;;;;;;20.05;4.43;;;;;;;;;;4999583;28;20480;-62
2022/08/29 06:49:02;;;;;;;14.65;4.45;;;;;;;;;;4999765;28;20084;-63
2022/08/29 06:51:31;;;;;;;13.80;3.72;;;;;;;;;;5000760;28;20054;-64
2022/08/29 06:54:01;;;;;;;10.77;4.00;;;;;;;;;;5002537;28;20054;-62
2022/08/29 06:56:28;;;;;;;16.02;3.67;;;;;;;;;;5001484;28;20077;-66
2022/08/29 06:58:53;;;;;;;7.20;3.60;;;;;;;;;;4999499;28;20053;-64
2022/08/29 07:01:20;;;;;;;12.95;4.10;;;;;;;;;;5000358;28;20053;-63
2022/08/29 07:03:46;;;;;;;14.10;3.70;;;;;;;;;;5003600;28;20412;-64
2022/08/29 07:06:13;;;;;;;6.35;3.50;;;;;;;;;;5002123;28;20064;-62
2022/08/29 07:08:39;;;;;;;11.45;3.90;;;;;;;;;;5002654;28;20042;-63
2022/08/29 07:11:05;;;;;;;11.18;3.60;;;;;;;;;;5001441;28;20112;-64
2022/08/29 07:13:33;;;;;;;7.88;3.92;;;;;;;;;;5000466;28;20065;-64
2022/08/29 07:15:59;;;;;;;7.45;3.80;;;;;;;;;;5004978;28;20061;-63
2022/08/29 07:18:25;;;;;;;9.10;4.00;;;;;;;;;;5001499;28;20562;-64
2022/08/29 07:20:53;;;;;;;7.43;3.35;;;;;;;;;;5000144;28;20693;-63
2022/08/29 07:23:19;;;;;;;15.35;4.18;;;;;;;;;;4999131;28;20054;-65
2022/08/29 07:25:46;;;;;;;7.72;4.32;;;;;;;;;;5001102;28;20107;-63
2022/08/29 07:28:12;;;;;;;7.65;4.53;;;;;;;;;;4998921;28;20046;-65
2022/08/29 07:30:38;;;;;;;9.57;4.68;;;;;;;;;;4992013;28;20042;-66
2022/08/29 07:33:04;;;;;;;10.73;4.60;;;;;;;;;;4997975;28;20057;-65
2022/08/29 07:35:30;;;;;;;8.80;4.90;;;;;;;;;;5003631;28;20049;-65
2022/08/29 07:38:00;;;;;;;11.90;4.88;;;;;;;;;;5000932;28;20054;-65
2022/08/29 07:40:26;;;;;;;17.00;5.03;;;;;;;;;;4998315;28;20065;-65
2022/08/29 07:42:52;;;;;;;12.50;4.63;;;;;;;;;;5004191;28;20049;-65
2022/08/29 07:45:18;;;;;;;11.20;5.10;;;;;;;;;;4997905;28;21853;-63
2022/08/29 07:47:44;;;;;;;10.98;5.18;;;;;;;;;;4994638;28;20053;-65
2022/08/29 07:50:12;;;;;;;10.80;5.53;;;;;;;;;;5001443;28;20479;-64
2022/08/29 07:52:38;;;;;;;17.70;6.60;;;;;;;;;;5001120;28;20097;-64
2022/08/29 07:55:05;;;;;;;9.15;5.75;;;;;;;;;;4985385;28;20061;-64
2022/08/29 07:57:32;;;;;;;10.48;5.30;;;;;;;;;;5003187;28;20455;-64
2022/08/29 07:59:59;;;;;;;14.35;5.53;;;;;;;;;;4998712;28;20144;-66
2022/08/29 08:02:26;;;;;;;11.05;6.30;;;;;;;;;;5001120;28;20066;-64
2022/08/29 08:04:59;;;;;;;14.95;5.93;;;;;;;;;;4999953;28;20053;-63
2022/08/29 08:07:25;;;;;;;11.15;4.47;;;;;;;;;;5004136;28;20104;-71
2022/08/29 08:09:52;;;;;;;11.15;4.28;;;;;;;;;;4983492;28;20045;-73
2022/08/29 08:12:18;;;;;;;13.25;4.85;;;;;;;;;;4996410;28;20052;-73
2022/08/29 08:14:44;;;;;;;12.57;4.20;;;;;;;;;;5004515;28;20129;-72
2022/08/29 08:17:10;;;;;;;15.32;4.10;;;;;;;;;;5002737;28;20419;-70
2022/08/29 08:19:36;;;;;;;11.88;3.78;;;;;;;;;;5003285;28;20058;-71
2022/08/29 08:22:02;;;;;;;11.90;4.50;;;;;;;;;;5002583;28;20511;-71
2022/08/29 08:24:28;;;;;;;9.85;4.20;;;;;;;;;;5003359;28;20070;-72
2022/08/29 08:26:54;;;;;;;9.98;3.75;;;;;;;;;;5001333;28;20046;-73
2022/08/29 08:29:20;;;;;;;8.75;4.10;;;;;;;;;;5003813;28;20045;-73
2022/08/29 08:31:49;;;;;;;10.05;3.67;;;;;;;;;;4996366;28;20074;-70
2022/08/29 08:34:16;;;;;;;7.28;3.85;;;;;;;;;;4999034;28;20499;-63
2022/08/29 08:36:43;;;;;;;9.23;3.50;;;;;;;;;;5000748;28;20156;-64
2022/08/29 08:39:11;;;;;;;8.60;3.58;;;;;;;;;;4998432;28;20411;-63
2022/08/29 08:41:59;;;;;;;9.00;3.75;;;;;;;;;;5000041;28;20170;-67
2022/08/29 08:44:30;;;;;;;7.85;3.75;;;;;;;;;;5003492;28;20131;-64
2022/08/29 08:47:00;;;;;;;10.68;3.75;;;;;;;;;;5004253;28;20050;-64
2022/08/29 08:49:39;;;;;;;7.45;3.33;;;;;;;;;;4985493;28;20057;-64
2022/08/29 08:52:12;;;;;;;7.97;3.20;;;;;;;;;;5001956;28;20057;-65
2022/08/29 08:55:00;;;;;;;;;;;;;;;;;;5001202;28;20046;-63
2022/08/29 08:57:38;;;;;;;5.88;3.10;;;;;;;;;;5000568;28;20547;-62
2022/08/29 09:00:06;;;;;;;6.75;3.28;;;;;;;;;;5000858;28;20061;-64
2022/08/29 09:02:57;;;;;;;7.53;3.20;;;;;;;;;;4999576;28;20054;-64
2022/08/29 09:05:41;;;;;;;9.93;3.15;;;;;;;;;;4998598;28;20141;-65
2022/08/29 09:08:13;;;;;;;;;;;;;;;;;;4984275;28;20058;-62
2022/08/29 09:10:45;;;;;;;6.85;2.83;;;;;;;;;;5001596;28;19922;-64
2022/08/29 09:13:29;;;;;;;7.68;2.95;;;;;;;;;;4999070;28;20042;-70
2022/08/29 09:15:58;;;;;;;11.00;2.85;;;;;;;;;;4999492;28;20507;-62
2022/08/29 09:18:27;;;;;;;8.43;3.50;;;;;;;;;;5002087;28;20054;-64
2022/08/29 09:20:54;;;;;;;6.07;3.38;;;;;;;;;;4999003;28;20039;-63
2022/08/29 09:23:38;;;;;;;7.63;3.00;;;;;;;;;;5002397;28;20132;-63
2022/08/29 09:26:05;;;;;;;9.27;2.95;;;;;;;;;;4981984;28;20080;-63
2022/08/29 09:28:31;;;;;;;12.07;3.42;;;;;;;;;;5000329;28;20057;-64
2022/08/29 09:31:22;;;;;;;5.03;2.95;;;;;;;;;;4997831;28;20119;-66
2022/08/29 09:33:58;;;;;;;8.52;2.80;;;;;;;;;;5002227;28;20476;-64
2022/08/29 09:36:47;;;;;;;8.95;3.33;;;;;;;;;;4999021;28;21496;-63
2022/08/29 09:39:23;;;;;;;8.15;3.45;;;;;;;;;;4997462;28;20054;-65
2022/08/29 09:41:52;;;;;;;10.25;3.30;;;;;;;;;;4998852;28;22209;-63
2022/08/29 09:44:24;;;;;;;9.30;3.78;;;;;;;;;;5001418;28;20046;-67
2022/08/29 09:47:24;;;;;;;6.95;3.50;;;;;;;;;;5003480;28;20128;-63
2022/08/29 09:50:17;;;;;;;8.65;3.88;;;;;;;;;;5000829;28;20144;-65
2022/08/29 09:52:59;;;;;;;7.28;3.70;;;;;;;;;;5005473;28;20038;-63
2022/08/29 09:55:33;;;;;;;9.35;3.08;;;;;;;;;;5003186;28;20069;-63
2022/08/29 09:58:29;;;;;;;7.78;3.10;;;;;;;;;;5003934;28;20194;-67
2022/08/29 10:01:01;;;;;;;8.27;3.38;;;;;;;;;;4999270;28;21316;-62
2022/08/29 10:03:31;;;;;;;12.88;2.80;;;;;;;;;;5002279;28;20053;-65
2022/08/29 10:06:19;;;;;;;7.00;2.70;;;;;;;;;;5002246;28;20060;-62
2022/08/29 10:09:24;;;;;;;8.43;2.88;;;;;;;;;;5004830;28;20046;-61
2022/08/29 10:12:02;;;;;;;6.63;2.92;;;;;;;;;;4961158;28;20049;-64
2022/08/29 10:14:32;;;;;;;5.88;3.13;;;;;;;;;;5000518;28;20054;-62
2022/08/29 10:20:52;;;;;;;7.90;3.28;;;;;;;;;;4986395;28;20090;-63
2022/08/29 10:23:25;;;;;;;6.45;2.67;;;;;;;;;;5006447;28;20097;-61
2022/08/29 10:25:51;;;;;;;7.63;2.80;;;;;;;;;;5008485;28;20427;-64
2022/08/29 10:28:38;;;;;;;10.35;3.03;;;;;;;;;;5003640;28;20047;-62
2022/08/29 10:31:07;;;;;;;7.20;2.72;;;;;;;;;;4995660;28;20058;-64
2022/08/29 10:34:12;;;;;;;7.07;2.70;;;;;;;;;;4993635;28;20747;-62
2022/08/29 10:36:39;;;;;;;;;;;;;;;;;;4996367;28;20218;-64
2022/08/29 10:39:19;;;;;;;7.93;2.70;;;;;;;;;;5002426;28;19929;-64
2022/08/29 10:42:18;;;;;;;5.05;2.67;;;;;;;;;;4979839;28;20050;-71
2022/08/29 10:44:59;;;;;;;8.93;3.20;;;;;;;;;;4986607;28;20042;-70
2022/08/29 10:48:10;;;;;;;5.53;3.15;;;;;;;;;;4998271;28;20133;-72
2022/08/29 10:50:35;;;;;;;6.53;2.55;;;;;;;;;;4983882;28;20058;-71
2022/08/29 10:53:13;;;;;;;5.55;2.78;;;;;;;;;;5000058;28;20116;-70
2022/08/29 10:55:55;;;;;;;4.75;2.83;;;;;;;;;;5004829;28;20582;-71
2022/08/29 10:58:25;;;;;;;12.70;3.80;;;;;;;;;;5000249;28;20053;-72
2022/08/29 11:00:54;;;;;;;9.75;3.30;;;;;;;;;;4998641;28;20484;-70
2022/08/29 11:03:42;;;;;;;30.85;7.57;;;;;;;;;;5001539;28;20120;-71
2022/08/29 11:06:21;;;;;;;20.40;4.70;;;;;;;;;;4998865;28;20050;-71
2022/08/29 11:09:36;;;;;;;12.75;4.18;;;;;;;;;;4993060;28;20565;-74
2022/08/29 11:12:14;;;;;;;9.35;3.17;;;;;;;;;;4987705;28;20168;-70
2022/08/29 11:14:47;;;;;;;8.40;3.13;;;;;;;;;;5004658;28;20088;-73
2022/08/29 11:17:16;;;;;;;6.65;2.92;;;;;;;;;;5001695;28;20051;-64
2022/08/29 11:20:10;;;;;;;8.70;3.17;;;;;;;;;;5000991;28;20527;-65
2022/08/29 11:22:44;;;;;;;7.20;2.75;;;;;;;;;;5002159;28;20135;-62
2022/08/29 11:25:11;;;;;;;;;;;;;;;;;;5002740;28;20705;-65
2022/08/29 11:27:43;;;;;;;4.97;2.58;;;;;;;;;;4978980;28;20346;-64
2022/08/29 11:30:14;;;;;;;7.40;3.10;;;;;;;;;;4999444;28;20128;-72
2022/08/29 11:32:52;;;;;;;11.38;3.40;;;;;;;;;;5004635;28;20097;-70
2022/08/29 11:35:27;;;;;;;8.88;3.50;;;;;;;;;;5006753;28;20046;-74
2022/08/29 11:38:06;;;;;;;8.65;3.28;;;;;;;;;;5004676;28;20046;-74
2022/08/29 11:40:55;;;;;;;9.43;3.47;;;;;;;;;;5009033;28;20057;-76
2022/08/29 11:43:25;;;;;;;7.63;3.22;;;;;;;;;;5006880;28;20054;-75
2022/08/29 11:46:00;;;;;;;6.05;2.80;;;;;;;;;;5014182;28;20152;-73
2022/08/29 11:48:35;;;;;;;9.63;3.22;;;;;;;;;;5010924;28;20061;-73
2022/08/29 11:51:36;;;;;;;10.45;3.30;;;;;;;;;;5005003;28;20408;-75
2022/08/29 11:54:23;;;;;;;11.18;3.00;;;;;;;;;;5010774;28;20065;-74
2022/08/29 11:57:01;;;;;;;5.18;2.83;;;;;;;;;;5004989;28;20118;-72
2022/08/29 11:59:43;;;;;;;4.93;2.60;;;;;;;;;;4982498;28;20080;-72
2022/08/29 12:02:29;;;;;;;6.88;2.88;;;;;;;;;;5000766;28;20078;-70
2022/08/29 12:04:58;;;;;;;7.22;2.80;;;;;;;;;;5006681;28;20042;-67
2022/08/29 12:07:47;;;;;;;4.72;2.20;;;;;;;;;;5004704;28;20127;-67
2022/08/29 12:10:22;;;;;;;5.28;2.40;;;;;;;;;;5007935;28;20058;-69
2022/08/29 12:13:01;;;;;;;6.70;2.45;;;;;;;;;;5003208;28;20508;-71
2022/08/29 12:15:37;;;;;;;5.70;2.28;;;;;;;;;;5013783;28;20121;-68
2022/08/29 12:18:12;;;;;;;4.80;2.35;;;;;;;;;;5002061;28;20045;-71
2022/08/29 12:20:43;;;;;;;4.40;1.98;;;;;;;;;;5008505;28;20046;-69
2022/08/29 12:23:11;;;;;;;5.03;2.17;;;;;;;;;;4992518;28;20071;-69
2022/08/29 12:25:43;;;;;;;4.43;2.05;;;;;;;;;;5007879;28;20045;-70
2022/08/29 12:28:29;;;;;;;7.00;2.17;;;;;;;;;;5006694;28;20184;-71
2022/08/29 12:31:00;;;;;;;6.35;2.33;;;;;;;;;;5011203;28;20050;-73
2022/08/29 12:33:53;;;;;;;8.98;2.20;;;;;;;;;;5002440;28;20050;-73
2022/08/29 12:36:34;;;;;;;4.85;2.28;;;;;;;;;;4998513;28;20061;-69
2022/08/29 12:39:19;;;;;;;6.07;2.05;;;;;;;;;;5010285;28;20050;-69
2022/08/29 12:42:09;;;;;;;3.70;1.80;;;;;;;;;;5005275;28;20053;-73
2022/08/29 12:44:44;;;;;;;5.15;2.00;;;;;;;;;;5007890;28;20383;-71
2022/08/29 12:47:24;;;;;;;5.38;2.03;;;;;;;;;;5006409;28;20034;-72
2022/08/29 12:49:54;;;;;;;8.18;2.20;;;;;;;;;;5006787;28;20444;-77
2022/08/29 12:52:20;;;;;;;6.28;2.05;;;;;;;;;;4997417;28;20172;-72
2022/08/29 12:54:46;;;;;;;5.57;1.88;;;;;;;;;;5006359;28;20137;-69
2022/08/29 12:57:18;;;;;;;7.80;2.15;;;;;;;;;;5009797;28;20042;-72
2022/08/29 12:59:47;;;;;;;6.43;1.80;;;;;;;;;;4999624;28;20476;-72
2022/08/29 13:02:35;;;;;;;5.75;2.20;;;;;;;;;;5002235;28;20054;-71
2022/08/29 13:05:04;;;;;;;5.32;1.85;;;;;;;;;;5012054;28;20148;-73
2022/08/29 13:07:30;;;;;;;11.07;2.53;;;;;;;;;;5005703;28;20041;-73
2022/08/29 13:09:58;;;;;;;5.38;2.35;;;;;;;;;;5001297;28;20099;-71
2022/08/29 13:12:28;;;;;;;6.07;1.88;;;;;;;;;;5005940;28;20050;-72
2022/08/29 13:15:00;;;;;;;7.25;2.60;;;;;;;;;;5007486;28;20069;-71
2022/08/29 13:17:31;;;;;;;9.00;2.20;;;;;;;;;;5010900;28;20057;-72
2022/08/29 13:20:34;;;;;;;4.38;2.15;;;;;;;;;;5009678;28;20042;-73
2022/08/29 13:23:18;;;;;;;4.25;2.15;;;;;;;;;;5009064;28;20057;-73
2022/08/29 13:25:56;;;;;;;8.82;2.58;;;;;;;;;;5003942;28;20183;-69
2022/08/29 13:28:42;;;;;;;3.13;1.50;;;;;;;;;;5003392;28;20053;-72
2022/08/29 13:31:11;;;;;;;6.00;1.98;;;;;;;;;;5003020;28;20061;-69
2022/08/29 13:33:59;;;;;;;4.88;1.95;;;;;;;;;;5002519;28;20500;-70
2022/08/29 13:36:50;;;;;;;3.08;1.50;;;;;;;;;;5003707;28;20045;-69
2022/08/29 13:39:16;;;;;;;5.43;1.77;;;;;;;;;;5010092;28;20049;-70
2022/08/29 13:41:44;;;;;;;3.85;1.55;;;;;;;;;;5023977;28;20489;-69
2022/08/29 13:44:43;;;;;;;5.45;2.05;;;;;;;;;;4993117;28;20088;-70
2022/08/29 13:47:24;;;;;;;13.32;2.33;;;;;;;;;;5001197;28;20050;-71
2022/08/29 13:49:50;;;;;;;4.95;1.80;;;;;;;;;;5006265;28;20096;-69
2022/08/29 13:52:17;;;;;;;3.67;1.70;;;;;;;;;;5004164;28;20060;-70
2022/08/29 13:54:44;;;;;;;6.53;1.80;;;;;;;;;;5001821;28;20364;-70
2022/08/29 13:57:16;;;;;;;3.75;1.60;;;;;;;;;;5014118;28;20199;-71
2022/08/29 13:59:42;;;;;;;5.60;1.30;;;;;;;;;;5006512;28;20121;-70
2022/08/29 14:02:08;;;;;;;7.35;1.70;;;;;;;;;;5002890;28;20064;-69
2022/08/29 14:04:34;;;;;;;4.47;1.45;;;;;;;;;;4991082;28;20049;-72
2022/08/29 14:07:01;;;;;;;4.68;1.77;;;;;;;;;;5009191;28;20042;-70
2022/08/29 14:09:36;;;;;;;5.70;1.50;;;;;;;;;;5006237;28;20049;-69
2022/08/29 14:12:03;;;;;;;6.32;1.88;;;;;;;;;;5015553;28;20058;-66
2022/08/29 14:14:30;;;;;;;4.03;1.40;;;;;;;;;;5004842;28;20057;-69
2022/08/29 14:16:57;;;;;;;7.00;2.03;;;;;;;;;;4982623;28;20365;-69
2022/08/29 14:19:30;;;;;;;6.38;2.00;;;;;;;;;;5004514;28;20044;-71
2022/08/29 14:22:00;;;;;;;4.53;1.85;;;;;;;;;;5008930;28;20050;-69
2022/08/29 14:24:27;;;;;;;6.10;1.70;;;;;;;;;;5009401;28;20046;-68
2022/08/29 14:26:54;;;;;;;7.00;1.80;;;;;;;;;;5013269;28;20121;-68
2022/08/29 14:29:19;;;;;;;4.40;1.60;;;;;;;;;;5010061;28;20049;-69
2022/08/29 14:31:46;;;;;;;5.85;1.50;;;;;;;;;;5008854;28;20061;-69
2022/08/29 14:34:12;;;;;;;5.22;1.48;;;;;;;;;;4995567;28;20042;-69
2022/08/29 14:36:38;;;;;;;5.05;1.80;;;;;;;;;;5001420;28;20516;-68
2022/08/29 14:39:06;;;;;;;8.07;1.80;;;;;;;;;;5014648;28;20054;-70
2022/08/29 14:41:32;;;;;;;6.13;1.73;;;;;;;;;;4990173;28;20073;-69
2022/08/29 14:43:58;;;;;;;4.45;1.60;;;;;;;;;;4997321;28;20050;-70
2022/08/29 14:46:25;;;;;;;4.95;1.70;;;;;;;;;;5009692;28;20064;-69
2022/08/29 14:48:51;;;;;;;4.97;1.50;;;;;;;;;;5011364;28;20046;-72
2022/08/29 14:51:17;;;;;;;4.38;1.30;;;;;;;;;;5011256;28;20042;-72
2022/08/29 14:53:44;;;;;;;7.35;1.50;;;;;;;;;;5003419;28;20052;-71
2022/08/29 14:56:11;;;;;;;4.30;1.20;;;;;;;;;;5005310;28;20050;-73
2022/08/29 14:58:37;;;;;;;8.73;1.88;;;;;;;;;;5009994;28;20045;-73
2022/08/29 15:01:04;;;;;;;7.10;1.73;;;;;;;;;;5011465;28;20455;-71
2022/08/29 15:03:30;;;;;;;6.55;1.75;;;;;;;;;;5014160;28;20064;-73
2022/08/29 15:05:56;;;;;;;7.70;1.40;;;;;;;;;;5007095;28;20081;-70
2022/08/29 15:08:22;;;;;;;2.67;1.45;;;;;;;;;;5012271;28;20054;-66
2022/08/29 15:10:48;;;;;;;6.88;1.90;;;;;;;;;;4989613;28;20044;-70
2022/08/29 15:13:14;;;;;;;4.32;1.50;;;;;;;;;;5006382;28;20137;-68